Time;durP1;ratioP1;P1;durP2;ratioP2;P2;SDS_P1;SDS_P2;PMS_P1;PMS_P2;Temp;Humidity;BMP_temperature;BMP_pressure;BME280_temperature;BME280_humidity;BME280_pressure;Samples;Min_cycle;Max_cycle;Signal;HPM_P1;HPM_P2
2023/08/19 00:00:23;;;;;;;14.52;10.73;;;20.40;97.20;;;;;;5030348;28;20386;-71
2023/08/19 00:02:49;;;;;;;13.02;10.35;;;20.40;97.30;;;;;;5028567;28;20091;-70
2023/08/19 00:05:15;;;;;;;14.75;11.05;;;20.30;97.40;;;;;;5036667;28;20032;-70
2023/08/19 00:07:40;;;;;;;16.60;10.23;;;20.20;97.50;;;;;;5028155;28;20041;-70
2023/08/19 00:10:06;;;;;;;17.95;10.73;;;20.10;97.70;;;;;;5035131;28;20083;-70
2023/08/19 00:12:32;;;;;;;17.00;11.73;;;20.10;97.90;;;;;;5024974;28;20087;-70
2023/08/19 00:14:57;;;;;;;19.00;12.55;;;20.10;97.90;;;;;;5031155;28;20112;-70
2023/08/19 00:17:24;;;;;;;15.38;12.50;;;20.20;98.00;;;;;;5027033;28;20394;-69
2023/08/19 00:19:50;;;;;;;14.45;11.43;;;20.20;97.90;;;;;;5022495;28;20089;-70
2023/08/19 00:22:17;;;;;;;18.08;11.75;;;20.20;97.80;;;;;;5029242;28;20022;-70
2023/08/19 00:24:43;;;;;;;26.05;12.57;;;20.10;97.90;;;;;;5024090;28;20045;-70
2023/08/19 00:27:09;;;;;;;17.25;13.10;;;20.10;98.00;;;;;;5027083;28;20052;-70
2023/08/19 00:29:35;;;;;;;19.33;13.38;;;20.20;97.90;;;;;;5022425;28;20475;-70
2023/08/19 00:32:01;;;;;;;17.27;13.05;;;20.20;97.70;;;;;;5021879;28;20458;-70
2023/08/19 00:34:26;;;;;;;16.45;12.25;;;20.30;97.70;;;;;;5030226;28;20047;-70
2023/08/19 00:36:51;;;;;;;16.63;13.23;;;20.20;97.70;;;;;;5027706;28;20030;-70
2023/08/19 00:39:17;;;;;;;16.90;13.30;;;20.20;97.90;;;;;;5026030;28;20034;-69
2023/08/19 00:41:44;;;;;;;16.48;13.13;;;20.20;97.70;;;;;;5030903;28;20041;-70
2023/08/19 00:44:10;;;;;;;18.27;13.25;;;20.30;97.80;;;;;;5022067;28;20474;-70
2023/08/19 00:46:35;;;;;;;16.42;12.60;;;20.30;97.60;;;;;;5024956;28;20036;-70
2023/08/19 00:49:01;;;;;;;14.88;12.27;;;20.20;97.60;;;;;;5027079;28;20022;-70
2023/08/19 00:51:27;;;;;;;15.90;13.07;;;20.30;97.70;;;;;;5031577;28;20045;-70
2023/08/19 00:53:53;;;;;;;17.60;12.70;;;20.30;97.40;;;;;;5022064;28;20033;-70
2023/08/19 00:56:19;;;;;;;15.13;12.98;;;20.30;97.20;;;;;;5030997;28;20033;-70
2023/08/19 00:58:45;;;;;;;14.60;13.10;;;20.30;97.50;;;;;;5028333;28;20037;-71
2023/08/19 01:01:11;;;;;;;17.60;12.98;;;20.20;97.40;;;;;;5028477;28;20396;-70
2023/08/19 01:03:37;;;;;;;17.27;13.18;;;20.30;97.30;;;;;;5033098;28;20117;-70
2023/08/19 01:06:17;;;;;;;15.93;12.63;;;20.30;97.20;;;;;;5029193;28;20132;-70
2023/08/19 01:08:55;;;;;;;15.57;12.35;;;20.20;97.20;;;;;;5024547;28;20040;-70
2023/08/19 01:11:44;;;;;;;18.88;13.35;;;20.20;97.30;;;;;;5027660;28;20037;-70
2023/08/19 01:14:34;;;;;;;14.52;12.55;;;20.20;97.20;;;;;;5027501;28;20044;-70
2023/08/19 01:17:03;;;;;;;15.00;12.37;;;20.20;97.10;;;;;;5019540;28;20034;-70
2023/08/19 01:19:30;;;;;;;16.85;13.00;;;20.10;97.20;;;;;;5031725;28;20033;-70
2023/08/19 01:22:04;;;;;;;14.63;13.07;;;20.10;97.30;;;;;;5025842;28;20060;-70
2023/08/19 01:24:35;;;;;;;15.80;12.98;;;20.20;97.10;;;;;;5026369;28;20108;-71
2023/08/19 01:27:02;;;;;;;18.13;12.65;;;20.20;97.00;;;;;;5026207;28;20382;-70
2023/08/19 01:29:28;;;;;;;16.77;11.90;;;20.20;96.90;;;;;;5028984;28;20029;-70
2023/08/19 01:31:53;;;;;;;15.25;12.40;;;20.10;96.90;;;;;;5029949;28;20135;-70
2023/08/19 01:34:19;;;;;;;13.82;12.25;;;20.00;96.90;;;;;;5021499;28;20037;-70
2023/08/19 01:36:52;;;;;;;14.63;12.23;;;20.00;97.10;;;;;;5028257;28;20029;-70
2023/08/19 01:39:22;;;;;;;18.30;12.95;;;19.90;97.30;;;;;;5034357;28;20390;-70
2023/08/19 01:41:49;;;;;;;14.75;12.95;;;19.80;97.40;;;;;;5026319;28;20563;-70
2023/08/19 01:44:15;;;;;;;17.13;12.63;;;19.80;97.50;;;;;;5018690;28;20057;-70
2023/08/19 01:46:40;;;;;;;20.20;13.30;;;19.80;97.60;;;;;;5020188;28;20041;-70
2023/08/19 01:49:06;;;;;;;17.27;13.32;;;19.70;97.60;;;;;;5026018;28;20030;-70
2023/08/19 01:51:31;;;;;;;15.98;13.52;;;19.60;97.80;;;;;;5026771;28;20037;-70
2023/08/19 01:53:57;;;;;;;16.20;14.23;;;19.70;97.90;;;;;;5030549;28;20478;-70
2023/08/19 01:56:23;;;;;;;20.95;15.95;;;19.70;97.90;;;;;;5025326;28;20116;-70
2023/08/19 01:58:48;;;;;;;20.17;14.10;;;19.60;97.90;;;;;;5022186;28;20495;-70
2023/08/19 02:01:14;;;;;;;17.98;14.65;;;19.60;98.00;;;;;;5025120;28;20470;-69
2023/08/19 02:03:40;;;;;;;17.00;14.23;;;19.60;97.90;;;;;;5021935;28;20041;-70
2023/08/19 02:06:05;;;;;;;17.42;14.18;;;19.60;97.90;;;;;;5027990;28;20474;-70
2023/08/19 02:08:31;;;;;;;20.08;15.20;;;19.60;98.00;;;;;;5019510;28;20029;-70
2023/08/19 02:10:56;;;;;;;19.70;15.82;;;19.70;98.00;;;;;;5024436;28;20401;-70
2023/08/19 02:13:22;;;;;;;17.85;14.68;;;19.70;97.70;;;;;;5019052;28;20108;-70
2023/08/19 02:15:47;;;;;;;18.88;14.95;;;19.70;97.90;;;;;;5028824;28;20041;-70
2023/08/19 02:18:14;;;;;;;20.17;15.13;;;19.60;97.80;;;;;;5018185;28;20033;-70
2023/08/19 02:20:39;;;;;;;17.73;15.32;;;19.70;97.80;;;;;;5037128;28;20126;-70
2023/08/19 02:23:05;;;;;;;17.45;14.63;;;19.70;97.90;;;;;;5031354;28;20060;-70
2023/08/19 02:25:30;;;;;;;16.75;14.32;;;19.70;97.70;;;;;;5042301;28;20481;-70
2023/08/19 02:27:56;;;;;;;16.70;14.88;;;19.70;97.70;;;;;;5029045;28;20044;-70
2023/08/19 02:30:21;;;;;;;16.80;15.00;;;19.80;97.80;;;;;;5020413;28;20025;-69
2023/08/19 02:32:47;;;;;;;17.88;15.80;;;19.80;97.60;;;;;;5028482;28;20403;-70
2023/08/19 02:35:12;;;;;;;17.13;15.20;;;19.90;97.60;;;;;;5024660;28;20103;-70
2023/08/19 02:37:38;;;;;;;18.05;15.30;;;19.90;97.40;;;;;;5027860;28;20040;-70
2023/08/19 02:40:05;;;;;;;17.52;14.63;;;19.80;97.60;;;;;;5039903;28;20033;-70
2023/08/19 02:42:31;;;;;;;18.13;16.05;;;19.70;97.50;;;;;;5028164;28;20026;-70
2023/08/19 02:44:57;;;;;;;21.58;15.45;;;19.70;97.70;;;;;;5016904;28;20030;-70
2023/08/19 02:47:23;;;;;;;16.63;14.63;;;19.60;97.60;;;;;;5027713;28;20032;-70
2023/08/19 02:49:48;;;;;;;18.83;15.02;;;19.60;97.70;;;;;;5029575;28;20389;-70
2023/08/19 02:52:14;;;;;;;18.92;15.57;;;19.60;97.90;;;;;;5018884;28;20040;-70
2023/08/19 02:54:39;;;;;;;20.70;15.40;;;19.60;98.00;;;;;;5033488;28;20013;-70
2023/08/19 02:57:05;;;;;;;19.83;15.60;;;19.60;98.00;;;;;;5031687;28;20044;-70
2023/08/19 02:59:30;;;;;;;17.60;15.57;;;19.50;98.10;;;;;;5021588;28;20416;-70
2023/08/19 03:01:56;;;;;;;24.17;16.90;;;19.50;98.10;;;;;;5028485;28;20048;-70
2023/08/19 03:04:21;;;;;;;18.92;16.25;;;19.40;98.10;;;;;;5021702;28;20124;-70
2023/08/19 03:06:47;;;;;;;18.75;16.42;;;19.40;98.30;;;;;;5025386;28;20043;-70
2023/08/19 03:09:12;;;;;;;20.15;16.95;;;19.40;98.30;;;;;;5033191;28;20368;-70
2023/08/19 03:11:39;;;;;;;19.75;16.52;;;19.40;98.40;;;;;;5026483;28;20121;-70
2023/08/19 03:14:05;;;;;;;20.50;16.73;;;19.30;98.30;;;;;;5022396;28;20034;-70
2023/08/19 03:16:30;;;;;;;20.23;16.33;;;19.30;98.40;;;;;;5029168;28;20041;-70
2023/08/19 03:18:56;;;;;;;21.73;17.02;;;19.20;98.40;;;;;;5033491;28;20064;-70
2023/08/19 03:21:21;;;;;;;20.08;17.00;;;19.20;98.60;;;;;;5031906;28;20036;-70
2023/08/19 03:23:47;;;;;;;19.92;17.00;;;19.10;98.60;;;;;;5029831;28;20033;-70
2023/08/19 03:26:12;;;;;;;19.42;17.33;;;19.10;98.80;;;;;;5029130;28;20104;-70
2023/08/19 03:28:37;;;;;;;22.98;17.65;;;19.00;98.80;;;;;;5030060;28;20044;-70
2023/08/19 03:31:10;;;;;;;20.33;17.20;;;19.10;99.00;;;;;;5037941;28;20067;-71
2023/08/19 03:33:36;;;;;;;20.30;17.40;;;19.00;98.90;;;;;;5026188;28;20032;-70
2023/08/19 03:36:02;;;;;;;22.63;18.55;;;19.00;98.90;;;;;;5035083;28;20064;-70
2023/08/19 03:38:27;;;;;;;23.08;18.90;;;19.00;98.90;;;;;;5033564;28;20060;-70
2023/08/19 03:40:53;;;;;;;21.75;18.83;;;18.90;99.10;;;;;;5048960;28;20040;-70
2023/08/19 03:43:18;;;;;;;22.42;17.80;;;18.90;99.00;;;;;;5030359;28;20041;-70
2023/08/19 03:45:44;;;;;;;21.90;18.40;;;18.80;99.00;;;;;;5039100;28;20030;-69
2023/08/19 03:48:11;;;;;;;22.98;18.63;;;18.80;99.10;;;;;;5024461;28;20038;-70
2023/08/19 03:50:37;;;;;;;25.13;19.10;;;18.80;99.10;;;;;;5024868;28;20057;-70
2023/08/19 03:53:02;;;;;;;24.10;19.02;;;18.80;99.30;;;;;;5023325;28;20392;-70
2023/08/19 03:55:30;;;;;;;22.92;19.38;;;18.80;99.30;;;;;;5030242;28;20080;-71
2023/08/19 03:57:55;;;;;;;24.27;19.88;;;18.80;99.40;;;;;;5023883;28;20068;-70
2023/08/19 04:00:21;;;;;;;23.98;19.80;;;18.80;99.40;;;;;;5025874;28;20065;-70
2023/08/19 04:02:46;;;;;;;24.80;20.75;;;18.80;99.40;;;;;;5022797;28;20030;-70
2023/08/19 04:05:12;;;;;;;24.67;20.30;;;18.80;99.50;;;;;;5032004;28;20517;-70
2023/08/19 04:07:38;;;;;;;24.00;20.67;;;18.80;99.50;;;;;;5024559;28;20115;-70
2023/08/19 04:10:04;;;;;;;25.58;20.00;;;18.80;99.60;;;;;;5035502;28;20450;-70
2023/08/19 04:12:29;;;;;;;24.88;21.65;;;18.80;99.50;;;;;;5030813;28;20343;-70
2023/08/19 04:14:55;;;;;;;29.83;23.55;;;18.90;99.70;;;;;;5028233;28;20045;-70
2023/08/19 04:17:20;;;;;;;28.20;22.75;;;19.00;99.80;;;;;;5023395;28;20030;-70
2023/08/19 04:19:46;;;;;;;31.48;23.67;;;19.00;99.60;;;;;;5033646;28;20029;-70
2023/08/19 04:22:13;;;;;;;32.42;24.63;;;18.90;99.50;;;;;;5023256;28;20036;-70
2023/08/19 04:24:38;;;;;;;34.38;23.75;;;19.00;99.70;;;;;;5030830;28;20045;-70
2023/08/19 04:27:04;;;;;;;33.03;24.50;;;19.00;99.70;;;;;;5028032;28;20038;-71
2023/08/19 04:29:32;;;;;;;31.10;23.38;;;19.10;99.60;;;;;;5029127;28;20043;-70
2023/08/19 04:32:02;;;;;;;31.77;23.90;;;19.10;99.60;;;;;;5023145;28;20044;-69
2023/08/19 04:34:28;;;;;;;34.13;24.60;;;19.20;99.50;;;;;;5024476;28;20035;-70
2023/08/19 04:36:55;;;;;;;30.65;24.17;;;19.30;99.30;;;;;;5029968;28;20037;-68
2023/08/19 04:39:21;;;;;;;27.15;23.27;;;19.30;99.10;;;;;;5020265;28;20682;-68
2023/08/19 04:41:47;;;;;;;29.20;23.80;;;19.40;99.10;;;;;;5018938;28;20132;-69
2023/08/19 04:44:12;;;;;;;25.45;21.95;;;19.40;99.00;;;;;;5029619;28;20069;-70
2023/08/19 04:46:38;;;;;;;29.83;22.13;;;19.30;99.00;;;;;;5025194;28;20041;-69
2023/08/19 04:49:03;;;;;;;28.35;21.75;;;19.30;99.00;;;;;;5030661;28;20462;-69
2023/08/19 04:51:29;;;;;;;27.50;20.83;;;19.30;99.00;;;;;;5019577;28;20034;-70
2023/08/19 04:53:54;;;;;;;24.98;20.23;;;19.40;99.00;;;;;;5030863;28;20497;-71
2023/08/19 04:56:20;;;;;;;24.75;20.65;;;19.40;99.00;;;;;;5028559;28;20041;-71
2023/08/19 04:58:45;;;;;;;23.80;20.95;;;19.40;99.10;;;;;;5029383;28;20033;-72
2023/08/19 05:01:11;;;;;;;25.08;20.85;;;19.50;99.00;;;;;;5024068;28;20033;-70
2023/08/19 05:03:36;;;;;;;22.17;19.77;;;19.50;98.90;;;;;;5026008;28;20045;-70
2023/08/19 05:06:02;;;;;;;23.85;20.25;;;19.60;98.80;;;;;;5026774;28;20038;-70
2023/08/19 05:08:27;;;;;;;25.92;20.75;;;19.60;98.80;;;;;;5023830;28;20289;-69
2023/08/19 05:10:53;;;;;;;24.23;19.40;;;19.70;98.60;;;;;;5026516;28;20037;-69
2023/08/19 05:13:18;;;;;;;22.58;18.75;;;19.70;98.50;;;;;;5020748;28;20025;-69
2023/08/19 05:15:44;;;;;;;21.27;18.67;;;19.80;98.40;;;;;;5027423;28;20030;-69
2023/08/19 05:18:09;;;;;;;23.75;18.50;;;19.80;98.40;;;;;;5029320;28;20515;-69
2023/08/19 05:20:35;;;;;;;22.17;18.50;;;19.90;98.30;;;;;;5027814;28;20048;-68
2023/08/19 05:23:00;;;;;;;22.35;17.95;;;20.00;98.10;;;;;;5028516;28;20509;-69
2023/08/19 05:25:26;;;;;;;21.90;19.02;;;20.00;98.00;;;;;;5020258;28;20061;-69
2023/08/19 05:27:51;;;;;;;23.48;17.63;;;20.00;98.00;;;;;;5030404;28;20030;-69
2023/08/19 05:30:17;;;;;;;20.52;16.48;;;20.10;97.80;;;;;;5018469;28;20036;-71
2023/08/19 05:32:42;;;;;;;23.95;16.88;;;20.10;97.70;;;;;;5026130;28;20025;-68
2023/08/19 05:35:08;;;;;;;20.83;16.73;;;20.20;97.60;;;;;;5029599;28;20049;-67
2023/08/19 05:37:33;;;;;;;21.00;16.35;;;20.20;97.50;;;;;;5024264;28;20436;-69
2023/08/19 05:39:59;;;;;;;20.83;17.45;;;20.20;97.60;;;;;;5026725;28;20132;-66
2023/08/19 05:42:24;;;;;;;17.70;15.80;;;20.30;97.60;;;;;;5031022;28;20457;-67
2023/08/19 05:44:50;;;;;;;18.13;16.08;;;20.30;97.40;;;;;;5024324;28;20054;-66
2023/08/19 05:47:16;;;;;;;22.60;15.85;;;20.40;97.20;;;;;;5023780;28;20044;-69
2023/08/19 05:49:41;;;;;;;20.50;16.25;;;20.50;97.20;;;;;;5019541;28;20030;-70
2023/08/19 05:52:07;;;;;;;17.23;15.00;;;20.50;97.00;;;;;;5026495;28;20036;-72
2023/08/19 05:54:32;;;;;;;19.02;15.27;;;20.60;96.80;;;;;;5020536;28;20037;-71
2023/08/19 05:56:58;;;;;;;19.70;15.68;;;20.60;96.60;;;;;;5020657;28;20044;-70
2023/08/19 05:59:23;;;;;;;20.23;15.50;;;20.70;96.70;;;;;;5015876;28;20381;-70
2023/08/19 06:01:48;;;;;;;17.08;15.27;;;20.80;96.30;;;;;;5037172;28;20031;-71
2023/08/19 06:04:15;;;;;;;19.67;14.10;;;20.80;96.20;;;;;;5032488;28;20092;-71
2023/08/19 06:06:41;;;;;;;19.50;15.07;;;20.90;96.40;;;;;;5027746;28;20034;-69
2023/08/19 06:09:07;;;;;;;17.27;14.30;;;21.00;96.20;;;;;;5018742;28;20043;-77
2023/08/19 06:11:33;;;;;;;17.52;14.73;;;21.10;95.90;;;;;;5019209;28;20477;-70
2023/08/19 06:13:58;;;;;;;15.55;13.70;;;21.10;95.50;;;;;;5024731;28;20053;-73
2023/08/19 06:16:24;;;;;;;17.08;13.23;;;21.20;95.50;;;;;;5028370;28;20113;-72
2023/08/19 06:18:50;;;;;;;17.27;13.93;;;21.30;95.40;;;;;;5025745;28;20037;-73
2023/08/19 06:21:15;;;;;;;17.42;13.27;;;21.40;95.10;;;;;;5034160;28;20025;-72
2023/08/19 06:23:41;;;;;;;18.23;13.90;;;21.50;95.00;;;;;;5029700;28;20132;-72
2023/08/19 06:26:06;;;;;;;16.52;13.05;;;21.50;94.70;;;;;;5026275;28;20038;-72
2023/08/19 06:28:32;;;;;;;16.95;13.80;;;21.60;94.40;;;;;;5031182;28;20029;-72
2023/08/19 06:30:58;;;;;;;14.63;12.73;;;21.70;93.90;;;;;;5029013;28;20124;-72
2023/08/19 06:33:23;;;;;;;14.82;12.63;;;21.70;93.80;;;;;;5028922;28;20103;-72
2023/08/19 06:35:49;;;;;;;17.52;13.38;;;21.80;93.70;;;;;;5028662;28;20064;-73
2023/08/19 06:38:28;;;;;;;14.73;13.13;;;22.00;93.40;;;;;;5028594;28;21061;-72
2023/08/19 06:41:09;;;;;;;16.55;12.98;;;22.00;93.00;;;;;;5022552;28;20041;-72
2023/08/19 06:43:36;;;;;;;16.85;12.43;;;22.20;92.60;;;;;;5026426;28;20033;-72
2023/08/19 06:46:03;;;;;;;15.02;12.18;;;22.30;92.60;;;;;;5032709;28;20321;-73
2023/08/19 06:48:29;;;;;;;15.68;12.68;;;22.50;92.10;;;;;;5031508;28;20470;-72
2023/08/19 06:50:54;;;;;;;15.45;12.15;;;22.50;91.70;;;;;;5027523;28;20083;-72
2023/08/19 06:53:21;;;;;;;15.45;12.52;;;22.60;91.90;;;;;;5028340;28;20033;-73
2023/08/19 06:56:07;;;;;;;15.75;12.95;;;22.60;91.90;;;;;;5033591;28;20029;-73
2023/08/19 06:58:36;;;;;;;13.18;11.70;;;22.90;90.90;;;;;;5025318;28;20125;-73
2023/08/19 07:01:04;;;;;;;16.42;11.82;;;23.00;90.60;;;;;;5026725;28;20045;-73
2023/08/19 07:03:34;;;;;;;13.85;11.85;;;23.20;91.20;;;;;;5032142;28;20029;-73
2023/08/19 07:06:01;;;;;;;15.80;11.57;;;23.40;89.70;;;;;;5026417;28;20091;-72
2023/08/19 07:08:30;;;;;;;14.13;11.88;;;23.70;88.90;;;;;;5022187;28;20045;-73
2023/08/19 07:11:00;;;;;;;12.43;10.60;;;23.90;88.30;;;;;;5044851;28;20051;-73
2023/08/19 07:13:27;;;;;;;13.10;11.00;;;24.10;87.70;;;;;;5039601;28;20029;-73
2023/08/19 07:15:58;;;;;;;14.98;10.43;;;24.30;87.40;;;;;;5036392;28;20041;-73
2023/08/19 07:18:26;;;;;;;11.68;10.38;;;24.40;86.40;;;;;;5031849;28;20042;-73
2023/08/19 07:20:53;;;;;;;14.63;10.70;;;24.30;87.10;;;;;;5035942;28;20044;-73
2023/08/19 07:23:21;;;;;;;12.25;10.95;;;24.40;86.20;;;;;;5031177;28;20088;-73
2023/08/19 07:25:47;;;;;;;14.65;10.18;;;24.40;86.30;;;;;;5038249;28;20077;-73
2023/08/19 07:28:15;;;;;;;12.52;10.18;;;24.40;85.80;;;;;;5033057;28;20033;-73
2023/08/19 07:30:41;;;;;;;10.90;9.77;;;24.50;85.50;;;;;;5033231;28;20523;-73
2023/08/19 07:33:10;;;;;;;11.68;9.88;;;24.50;85.40;;;;;;5038218;28;20389;-73
2023/08/19 07:35:35;;;;;;;12.77;9.32;;;24.60;86.20;;;;;;5035624;28;20032;-73
2023/08/19 07:38:01;;;;;;;11.98;9.82;;;24.70;86.10;;;;;;5036776;28;20025;-73
2023/08/19 07:40:26;;;;;;;14.23;9.82;;;24.80;84.90;;;;;;5030493;28;20037;-73
2023/08/19 07:42:52;;;;;;;11.65;10.18;;;24.90;85.20;;;;;;5034563;28;20485;-72
2023/08/19 07:45:18;;;;;;;11.98;9.88;;;25.00;84.10;;;;;;5031210;28;20044;-73
2023/08/19 07:47:43;;;;;;;11.63;9.65;;;25.20;84.10;;;;;;5041684;28;20033;-73
2023/08/19 07:50:09;;;;;;;12.80;9.73;;;25.20;83.60;;;;;;5029401;28;20036;-73
2023/08/19 07:52:35;;;;;;;13.05;9.45;;;25.30;83.30;;;;;;5029138;28;20029;-73
2023/08/19 07:55:00;;;;;;;11.40;9.95;;;25.50;84.00;;;;;;5037453;28;20029;-73
2023/08/19 07:57:26;;;;;;;10.65;9.15;;;25.50;82.80;;;;;;5034886;28;20026;-73
2023/08/19 07:59:51;;;;;;;14.18;9.25;;;25.50;82.60;;;;;;5022211;28;20037;-72
2023/08/19 08:02:18;;;;;;;12.48;9.32;;;25.80;84.20;;;;;;5034298;28;20418;-73
2023/08/19 08:04:44;;;;;;;13.35;9.23;;;25.90;83.80;;;;;;5028989;28;20037;-73
2023/08/19 08:07:09;;;;;;;10.52;8.73;;;26.00;82.70;;;;;;5038183;28;20025;-73
2023/08/19 08:09:35;;;;;;;10.07;8.10;;;26.10;81.90;;;;;;5026684;28;20036;-73
2023/08/19 08:12:00;;;;;;;11.45;9.23;;;26.30;81.10;;;;;;5041272;28;20369;-73
2023/08/19 08:14:26;;;;;;;11.73;9.27;;;26.40;79.80;;;;;;5038779;28;20042;-73
2023/08/19 08:16:51;;;;;;;11.57;9.32;;;26.40;80.00;;;;;;5032574;28;20368;-73
2023/08/19 08:19:16;;;;;;;12.30;8.98;;;26.70;80.70;;;;;;5029170;28;20054;-73
2023/08/19 08:21:42;;;;;;;10.73;8.93;;;26.70;79.60;;;;;;5031922;28;20033;-73
2023/08/19 08:24:07;;;;;;;11.73;8.88;;;26.90;80.30;;;;;;5028328;28;20095;-73
2023/08/19 08:26:33;;;;;;;13.00;8.88;;;26.90;78.60;;;;;;5036731;28;20025;-73
2023/08/19 08:28:58;;;;;;;12.00;8.68;;;26.90;79.80;;;;;;5033263;28;20025;-73
2023/08/19 08:31:24;;;;;;;10.50;8.75;;;26.90;79.80;;;;;;5029862;28;20032;-73
2023/08/19 08:33:49;;;;;;;12.98;8.07;;;26.80;79.10;;;;;;5025607;28;20111;-73
2023/08/19 08:36:15;;;;;;;22.27;8.15;;;26.80;79.20;;;;;;5037985;28;20025;-73
2023/08/19 08:38:40;;;;;;;11.32;7.93;;;27.20;78.60;;;;;;5034237;28;20092;-73
2023/08/19 08:41:08;;;;;;;9.45;8.00;;;27.30;76.20;;;;;;5031914;28;20114;-73
2023/08/19 08:43:34;;;;;;;9.43;8.27;;;27.20;76.90;;;;;;5029215;28;20041;-73
2023/08/19 08:46:00;;;;;;;8.80;7.90;;;27.00;77.70;;;;;;5028335;28;20087;-73
2023/08/19 08:48:31;;;;;;;9.48;8.20;;;27.10;79.10;;;;;;5029875;28;20073;-73
2023/08/19 08:50:58;;;;;;;9.52;7.85;;;27.00;78.20;;;;;;5025982;28;20052;-73
2023/08/19 08:53:26;;;;;;;9.60;7.90;;;26.90;76.50;;;;;;5038073;28;22038;-73
2023/08/19 08:55:53;;;;;;;9.70;7.85;;;26.90;77.40;;;;;;5038130;28;20033;-76
2023/08/19 08:58:18;;;;;;;11.75;7.85;;;27.20;78.50;;;;;;5026700;28;20547;-72
2023/08/19 09:00:44;;;;;;;11.52;8.52;;;27.40;77.30;;;;;;5030122;28;20049;-79
2023/08/19 09:03:11;;;;;;;11.25;7.93;;;27.50;76.80;;;;;;5030019;28;20041;-77
2023/08/19 09:05:38;;;;;;;9.35;8.07;;;27.60;77.80;;;;;;5024286;28;20032;-79
2023/08/19 09:08:11;;;;;;;9.40;7.95;;;27.70;75.40;;;;;;5029058;28;20034;-78
2023/08/19 09:10:37;;;;;;;9.35;7.45;;;27.90;74.60;;;;;;5032247;28;20025;-74
2023/08/19 09:13:04;;;;;;;10.40;7.47;;;28.20;75.80;;;;;;5025799;28;20044;-74
2023/08/19 09:15:31;;;;;;;9.73;7.38;;;28.70;77.40;;;;;;5019317;28;20033;-72
2023/08/19 09:17:57;;;;;;;8.63;7.40;;;28.80;76.20;;;;;;5021737;28;20048;-77
2023/08/19 09:20:25;;;;;;;10.32;8.10;;;29.00;73.10;;;;;;5027831;28;20025;-73
2023/08/19 09:22:51;;;;;;;9.60;7.53;;;29.20;71.90;;;;;;5015596;28;20103;-71
2023/08/19 09:25:17;;;;;;;10.35;7.35;;;29.40;71.70;;;;;;5029180;28;20053;-71
2023/08/19 09:27:44;;;;;;;9.80;7.28;;;29.30;71.50;;;;;;5042752;28;20112;-71
2023/08/19 09:30:14;;;;;;;9.32;7.47;;;29.10;70.20;;;;;;5025556;28;20028;-71
2023/08/19 09:32:41;;;;;;;11.35;7.38;;;29.10;72.80;;;;;;5036634;28;20036;-71
2023/08/19 09:35:14;;;;;;;9.13;6.45;;;29.10;71.50;;;;;;5032327;28;20384;-70
2023/08/19 09:37:41;;;;;;;9.38;7.15;;;29.00;70.20;;;;;;5049343;28;20483;-71
2023/08/19 09:40:11;;;;;;;10.77;6.72;;;29.20;70.20;;;;;;5038393;28;20029;-71
2023/08/19 09:42:37;;;;;;;11.48;6.85;;;29.30;71.60;;;;;;5039813;28;20040;-74
2023/08/19 09:45:05;;;;;;;7.93;6.60;;;29.60;70.20;;;;;;5027374;28;20040;-71
2023/08/19 09:47:43;;;;;;;9.77;6.53;;;29.50;68.30;;;;;;5043723;28;20033;-70
2023/08/19 09:50:09;;;;;;;8.65;6.95;;;29.60;69.70;;;;;;5018178;28;20112;-72
2023/08/19 09:52:34;;;;;;;7.50;6.72;;;29.90;69.00;;;;;;5025930;28;20168;-71
2023/08/19 09:55:00;;;;;;;7.70;6.63;;;30.10;69.20;;;;;;5036173;28;20036;-71
2023/08/19 09:57:33;;;;;;;9.27;6.47;;;30.10;69.10;;;;;;5022375;28;20029;-70
2023/08/19 10:00:00;;;;;;;8.13;7.07;;;30.00;68.00;;;;;;5027083;28;20068;-71
2023/08/19 10:02:27;;;;;;;10.57;6.40;;;30.20;68.20;;;;;;5025349;28;20122;-71
2023/08/19 10:04:53;;;;;;;8.27;6.32;;;30.40;67.60;;;;;;5044863;28;20021;-71
2023/08/19 10:07:22;;;;;;;8.60;6.30;;;30.50;68.60;;;;;;5037030;28;20025;-71
2023/08/19 10:09:50;;;;;;;7.95;6.72;;;30.50;65.50;;;;;;5028649;28;20026;-71
2023/08/19 10:12:18;;;;;;;8.35;6.50;;;30.70;66.90;;;;;;5016935;28;20038;-71
2023/08/19 10:14:49;;;;;;;8.60;6.28;;;30.70;66.90;;;;;;5030723;28;20033;-71
2023/08/19 10:17:15;;;;;;;8.45;6.05;;;30.80;66.60;;;;;;5036922;28;20137;-71
2023/08/19 10:19:50;;;;;;;9.13;6.30;;;31.00;67.40;;;;;;5040018;28;20040;-71
2023/08/19 10:22:18;;;;;;;8.50;6.05;;;31.00;66.40;;;;;;5039156;28;20059;-70
2023/08/19 10:24:44;;;;;;;8.35;6.20;;;31.00;65.10;;;;;;5035196;28;20068;-71
2023/08/19 10:27:19;;;;;;;7.32;5.95;;;30.80;64.70;;;;;;5037611;28;20026;-71
2023/08/19 10:29:48;;;;;;;8.23;5.97;;;30.90;65.20;;;;;;5023872;28;20037;-71
2023/08/19 10:32:31;;;;;;;9.13;6.17;;;31.10;66.50;;;;;;5027513;28;20084;-72
2023/08/19 10:35:09;;;;;;;7.22;5.63;;;31.30;66.40;;;;;;5037991;28;20272;-72
2023/08/19 10:37:40;;;;;;;7.55;5.90;;;31.20;63.70;;;;;;5027908;28;20029;-71
2023/08/19 10:40:14;;;;;;;9.70;6.40;;;31.30;62.50;;;;;;5028313;28;20702;-71
2023/08/19 10:42:40;;;;;;;6.78;5.43;;;31.40;62.10;;;;;;5032014;28;20033;-72
2023/08/19 10:45:18;;;;;;;7.90;6.30;;;31.50;61.30;;;;;;5037574;28;20527;-72
2023/08/19 10:47:44;;;;;;;9.07;5.70;;;31.20;64.30;;;;;;5032871;28;20025;-71
2023/08/19 10:50:11;;;;;;;8.50;5.57;;;31.00;63.10;;;;;;5039281;28;20083;-71
2023/08/19 10:52:59;;;;;;;6.70;5.45;;;31.10;63.10;;;;;;5034486;28;20540;-71
2023/08/19 10:55:25;;;;;;;9.57;5.45;;;31.10;61.50;;;;;;5035755;28;20064;-70
2023/08/19 10:57:51;;;;;;;8.48;5.95;;;31.50;61.10;;;;;;5039293;28;20060;-71
2023/08/19 11:00:22;;;;;;;6.57;5.35;;;31.50;60.40;;;;;;5030378;28;20044;-71
2023/08/19 11:02:47;;;;;;;7.10;5.28;;;31.90;61.10;;;;;;5024761;28;20066;-75
2023/08/19 11:05:12;;;;;;;8.00;5.20;;;31.60;60.30;;;;;;5029378;28;20071;-71
2023/08/19 11:07:41;;;;;;;7.68;5.43;;;31.60;62.00;;;;;;5039755;28;20512;-73
2023/08/19 11:10:07;;;;;;;7.95;4.78;;;31.80;64.70;;;;;;5045265;28;20025;-74
2023/08/19 11:12:33;;;;;;;6.95;4.85;;;31.60;62.70;;;;;;5044769;28;20082;-71
2023/08/19 11:14:59;;;;;;;7.78;5.28;;;31.50;63.20;;;;;;5029361;28;20037;-72
2023/08/19 11:17:32;;;;;;;7.35;5.30;;;31.30;62.20;;;;;;5036786;28;20013;-71
2023/08/19 11:20:07;;;;;;;8.65;5.38;;;31.20;65.20;;;;;;5040203;28;20066;-71
2023/08/19 11:22:41;;;;;;;9.32;4.95;;;31.10;63.40;;;;;;5029550;28;20504;-71
2023/08/19 11:25:07;;;;;;;8.52;4.65;;;30.90;63.50;;;;;;5030686;28;20455;-70
2023/08/19 11:27:32;;;;;;;6.90;4.55;;;30.80;62.00;;;;;;5029959;28;20036;-71
2023/08/19 11:29:58;;;;;;;9.88;4.85;;;30.90;64.30;;;;;;5027842;28;20421;-70
2023/08/19 11:32:25;;;;;;;5.95;4.47;;;30.60;62.50;;;;;;5040441;28;20029;-72
2023/08/19 11:34:50;;;;;;;6.38;4.72;;;30.90;61.90;;;;;;5030550;28;20354;-71
2023/08/19 11:37:16;;;;;;;6.03;4.22;;;30.70;62.00;;;;;;5037241;28;20160;-70
2023/08/19 11:39:44;;;;;;;5.93;4.50;;;30.80;62.00;;;;;;5024664;28;20056;-72
2023/08/19 11:42:10;;;;;;;5.97;4.63;;;30.80;61.20;;;;;;5035330;28;20121;-71
2023/08/19 11:44:35;;;;;;;5.55;4.20;;;30.80;61.90;;;;;;5033596;28;20109;-71
2023/08/19 11:47:01;;;;;;;4.65;3.47;;;30.60;62.00;;;;;;5036568;28;20063;-71
2023/08/19 11:49:30;;;;;;;5.57;3.97;;;30.30;61.70;;;;;;5032994;28;20033;-72
2023/08/19 11:51:56;;;;;;;6.93;4.18;;;30.40;61.40;;;;;;5029268;28;20030;-70
2023/08/19 11:54:23;;;;;;;5.28;3.90;;;30.40;62.50;;;;;;5037327;28;20425;-71
2023/08/19 11:56:51;;;;;;;4.50;3.72;;;30.40;61.90;;;;;;5032429;28;20029;-71
2023/08/19 11:59:17;;;;;;;7.07;3.80;;;30.30;60.80;;;;;;5025421;28;20152;-71
2023/08/19 12:01:46;;;;;;;5.95;3.95;;;30.30;62.60;;;;;;5037322;28;20482;-71
2023/08/19 12:04:16;;;;;;;6.03;3.63;;;30.00;61.80;;;;;;5029920;28;20117;-71
2023/08/19 12:06:43;;;;;;;5.07;3.83;;;30.00;63.90;;;;;;5032610;28;20029;-70
2023/08/19 12:09:09;;;;;;;7.05;3.63;;;29.90;63.10;;;;;;5025895;28;20033;-70
2023/08/19 12:11:38;;;;;;;6.10;3.92;;;29.90;63.30;;;;;;5033005;28;20453;-71
2023/08/19 12:14:04;;;;;;;5.53;3.83;;;29.90;62.80;;;;;;5032114;28;20420;-71
2023/08/19 12:16:30;;;;;;;5.53;3.42;;;30.00;65.70;;;;;;5029275;28;20026;-71
2023/08/19 12:18:57;;;;;;;5.65;3.92;;;30.00;64.50;;;;;;5029421;28;20096;-71
2023/08/19 12:21:23;;;;;;;6.07;4.03;;;29.90;65.00;;;;;;5033191;28;20040;-71
2023/08/19 12:23:49;;;;;;;6.18;4.15;;;30.00;64.00;;;;;;5029140;28;20033;-71
2023/08/19 12:26:14;;;;;;;5.10;3.90;;;29.90;64.30;;;;;;5032160;28;20052;-71
2023/08/19 12:28:40;;;;;;;8.07;4.00;;;30.00;63.10;;;;;;5032430;28;20101;-71
2023/08/19 12:31:05;;;;;;;4.80;3.88;;;30.10;65.20;;;;;;5035038;28;20029;-71